Terminal Aerodrome Forecast
Issued by NWS Lake Charles, LA

Home | Current Version | Previous Version | Text Only | Print | Product List | Glossary On
Versions: 1 2 3 4 5 6 7 8 9 10 11 12 13 14 15 16 17 18 19
522
FTUS44 KLCH 130528
TAFARA
TAF
KARA 130528Z 1306/1406 36005KT P6SM SCT040
     FM130800 03006KT P6SM FEW040
     FM131500 06012KT P6SM SKC
     FM140000 09005KT P6SM SCT250=

USA.gov is the U.S. government's official web portal to all federal, state and local government web resources and services.